createdAt,value
2018-11-05T00:01:00.802Z,99.90
2018-11-05T00:03:28.361Z,99.90
2018-11-05T00:05:55.983Z,99.90
2018-11-05T00:08:23.634Z,99.90
2018-11-05T00:10:57.446Z,99.90
2018-11-05T00:13:25.326Z,99.90
2018-11-05T00:15:52.903Z,99.90
2018-11-05T00:18:20.480Z,99.90
2018-11-05T00:20:48.037Z,99.90
2018-11-05T00:23:15.851Z,99.90
2018-11-05T00:25:43.399Z,99.90
2018-11-05T00:28:10.939Z,99.90
2018-11-05T00:30:38.604Z,99.90
2018-11-05T00:33:06.561Z,99.90
2018-11-05T00:35:34.184Z,99.90
2018-11-05T00:38:01.795Z,99.90
2018-11-05T00:40:29.340Z,99.90
2018-11-05T00:42:56.902Z,99.90
2018-11-05T00:45:24.575Z,99.90
2018-11-05T00:47:52.424Z,99.90
2018-11-05T00:50:19.966Z,99.90
2018-11-05T00:52:47.684Z,99.90
2018-11-05T00:55:15.423Z,99.90
2018-11-05T00:57:42.991Z,99.90
2018-11-05T01:00:13.263Z,99.90
2018-11-05T01:02:41.415Z,99.90
2018-11-05T01:05:10.711Z,99.90
2018-11-05T01:07:38.732Z,99.90
2018-11-05T01:10:07.108Z,99.90
2018-11-05T01:12:35.039Z,99.90
2018-11-05T01:15:02.868Z,99.90
2018-11-05T01:17:30.592Z,99.90
2018-11-05T01:19:58.296Z,99.90
2018-11-05T01:22:25.931Z,99.90
2018-11-05T01:24:53.460Z,99.90
2018-11-05T01:27:21.338Z,99.90
2018-11-05T01:29:48.947Z,99.90
2018-11-05T01:32:16.534Z,99.90
2018-11-05T01:34:44.158Z,99.90
2018-11-05T01:37:11.813Z,99.90
2018-11-05T01:39:39.357Z,99.90
2018-11-05T01:42:07.088Z,99.90
2018-11-05T01:44:34.622Z,99.90
2018-11-05T01:47:02.658Z,99.90
2018-11-05T01:49:30.302Z,99.90
2018-11-05T01:51:57.983Z,99.90
2018-11-05T01:54:25.522Z,99.90
2018-11-05T01:56:53.359Z,99.90
2018-11-05T01:59:21.176Z,99.90
2018-11-05T02:01:48.695Z,99.90
2018-11-05T02:04:16.382Z,99.90
2018-11-05T02:06:43.897Z,99.90
2018-11-05T02:09:11.681Z,99.90
2018-11-05T02:11:39.473Z,99.90
2018-11-05T02:14:07.021Z,99.90
2018-11-05T02:16:35.015Z,99.90
2018-11-05T02:19:02.594Z,99.90
2018-11-05T02:21:30.223Z,99.90
2018-11-05T02:23:57.920Z,99.90
2018-11-05T02:26:25.583Z,99.90
2018-11-05T02:28:53.345Z,99.90
2018-11-05T02:31:21.161Z,99.90
2018-11-05T02:33:48.679Z,99.90
2018-11-05T02:36:16.316Z,99.90
2018-11-05T02:38:43.887Z,99.90
2018-11-05T02:41:11.671Z,99.90
2018-11-05T02:43:39.302Z,99.90
2018-11-05T02:46:06.990Z,99.90
2018-11-05T02:48:34.615Z,99.90
2018-11-05T02:51:02.123Z,99.90
2018-11-05T02:53:30.034Z,99.90
2018-11-05T02:55:57.786Z,99.90
2018-11-05T02:58:27.102Z,99.90
2018-11-05T03:00:55.939Z,99.90
2018-11-05T03:03:23.663Z,99.90
2018-11-05T03:05:51.268Z,99.90
2018-11-05T03:08:18.900Z,99.90
2018-11-05T03:10:46.455Z,99.90
2018-11-05T03:13:14.171Z,99.90
2018-11-05T03:15:41.737Z,99.90
2018-11-05T03:18:09.291Z,99.90
2018-11-05T03:20:36.954Z,99.90
2018-11-05T03:23:05.001Z,99.90
2018-11-05T03:25:32.526Z,99.90
2018-11-05T03:28:00.372Z,99.90
2018-11-05T03:30:27.979Z,99.90
2018-11-05T03:32:55.568Z,99.90
2018-11-05T03:35:23.354Z,99.90
2018-11-05T03:37:50.942Z,99.90
2018-11-05T03:40:18.463Z,99.90
2018-11-05T03:42:46.038Z,99.90
2018-11-05T03:45:14.666Z,99.90
2018-11-05T03:47:42.498Z,99.90
2018-11-05T03:50:12.691Z,99.90
2018-11-05T03:52:40.788Z,99.90
2018-11-05T03:55:08.820Z,99.90
2018-11-05T03:57:36.651Z,99.90
2018-11-05T04:00:05.333Z,99.90
2018-11-05T04:02:33.183Z,99.90
2018-11-05T04:05:00.812Z,99.90
2018-11-05T04:07:28.557Z,99.90
2018-11-05T04:09:56.213Z,99.90
2018-11-05T04:12:23.816Z,99.90
2018-11-05T04:14:51.584Z,99.90
2018-11-05T04:17:19.427Z,99.90
2018-11-05T04:19:47.067Z,99.90
2018-11-05T04:22:14.616Z,99.90
2018-11-05T04:24:42.199Z,99.90
2018-11-05T04:27:09.951Z,99.90
2018-11-05T04:29:37.534Z,99.90
2018-11-05T04:32:05.106Z,99.90
2018-11-05T04:34:32.731Z,99.90
2018-11-05T04:37:00.279Z,99.90
2018-11-05T04:39:27.806Z,99.90
2018-11-05T04:41:55.344Z,99.90
2018-11-05T04:44:22.950Z,99.90
2018-11-05T04:46:50.707Z,99.90
2018-11-05T04:49:18.445Z,99.90
2018-11-05T04:51:45.988Z,99.90
2018-11-05T04:54:13.495Z,99.90
2018-11-05T04:56:41.065Z,99.90
2018-11-05T04:59:08.590Z,99.90
2018-11-05T05:01:36.182Z,99.90
2018-11-05T05:04:03.836Z,99.90
2018-11-05T05:06:31.411Z,99.90
2018-11-05T05:08:58.927Z,99.90
2018-11-05T05:11:26.487Z,99.90
2018-11-05T05:13:54.088Z,99.90
2018-11-05T05:16:21.969Z,99.90
2018-11-05T05:18:49.774Z,99.90
2018-11-05T05:21:17.307Z,99.90
2018-11-05T05:23:44.878Z,99.90
2018-11-05T05:26:12.451Z,99.90
2018-11-05T05:28:40.091Z,99.90
2018-11-05T05:31:07.838Z,99.90
2018-11-05T05:33:35.819Z,99.90
2018-11-05T05:36:03.753Z,99.90
2018-11-05T05:38:31.747Z,99.90
2018-11-05T05:40:59.501Z,99.90
2018-11-05T05:43:26.940Z,99.90
2018-11-05T05:45:54.651Z,99.90
2018-11-05T05:48:22.278Z,99.90
2018-11-05T05:50:49.881Z,99.90
2018-11-05T05:53:17.464Z,99.90
2018-11-05T05:55:45.827Z,99.90
2018-11-05T05:58:13.359Z,99.90
2018-11-05T06:00:41.060Z,99.90
2018-11-05T06:03:08.807Z,99.90
2018-11-05T06:05:36.716Z,99.90
2018-11-05T06:08:04.880Z,99.90
2018-11-05T06:10:32.641Z,99.90
2018-11-05T06:13:00.176Z,99.90
2018-11-05T06:15:27.993Z,99.90
2018-11-05T06:17:55.535Z,99.90
2018-11-05T06:20:34.577Z,99.90
2018-11-05T06:23:17.754Z,99.90
2018-11-05T06:25:45.348Z,99.90
2018-11-05T06:28:12.939Z,99.90
2018-11-05T06:30:40.844Z,99.90
2018-11-05T06:33:08.406Z,99.90
2018-11-05T06:35:35.938Z,99.90
2018-11-05T06:38:03.500Z,99.90
2018-11-05T06:40:31.043Z,99.90
2018-11-05T06:42:58.588Z,99.90
2018-11-05T06:45:26.205Z,99.90
2018-11-05T06:47:53.679Z,99.90
2018-11-05T06:50:22.855Z,99.90
2018-11-05T06:52:53.319Z,99.90
2018-11-05T06:55:21.165Z,99.90
2018-11-05T06:57:48.741Z,99.90
2018-11-05T07:00:21.987Z,99.90
2018-11-05T07:02:49.552Z,99.90
2018-11-05T07:05:17.176Z,99.90
2018-11-05T07:07:44.937Z,99.90
2018-11-05T07:10:13.462Z,99.90
2018-11-05T07:12:41.548Z,99.90
2018-11-05T07:15:10.940Z,99.90
2018-11-05T07:17:38.784Z,99.90
2018-11-05T07:20:08.780Z,99.90
2018-11-05T07:22:36.411Z,99.90
2018-11-05T07:25:05.011Z,99.90
2018-11-05T07:27:32.655Z,99.90
2018-11-05T07:30:00.138Z,99.90
2018-11-05T07:32:27.727Z,99.90
2018-11-05T07:34:55.411Z,99.90
2018-11-05T07:37:22.995Z,99.90
2018-11-05T07:39:50.538Z,99.90
2018-11-05T07:42:18.200Z,99.90
2018-11-05T07:44:46.095Z,99.90
2018-11-05T07:47:13.739Z,99.90
2018-11-05T07:49:41.267Z,99.90
2018-11-05T07:52:09.016Z,99.90
2018-11-05T07:54:36.579Z,99.90
2018-11-05T07:57:04.318Z,99.90
2018-11-05T07:59:32.006Z,99.90
2018-11-05T08:01:59.784Z,99.90
2018-11-05T08:04:27.349Z,99.90
2018-11-05T08:06:54.886Z,99.90
2018-11-05T08:09:22.383Z,99.90
2018-11-05T08:11:49.909Z,99.90
2018-11-05T08:14:17.517Z,99.90
2018-11-05T08:16:44.998Z,99.90
2018-11-05T08:19:12.559Z,99.90
2018-11-05T08:21:40.326Z,99.90
2018-11-05T08:24:07.883Z,99.90
2018-11-05T08:26:35.450Z,99.90
2018-11-05T08:29:03.104Z,99.90
2018-11-05T08:31:30.876Z,99.90
2018-11-05T08:33:58.565Z,99.90
2018-11-05T08:36:26.212Z,99.90
2018-11-05T08:38:53.750Z,99.90
2018-11-05T08:41:21.439Z,99.90
2018-11-05T08:43:49.058Z,99.90
2018-11-05T08:46:16.747Z,99.90
2018-11-05T08:48:44.350Z,99.90
2018-11-05T08:51:12.411Z,99.90
2018-11-05T08:53:40.203Z,99.90
2018-11-05T08:56:08.017Z,99.90
2018-11-05T08:58:35.610Z,99.90
2018-11-05T09:01:09.355Z,99.90
2018-11-05T09:03:36.910Z,99.90
2018-11-05T09:06:04.710Z,99.90
2018-11-05T09:08:32.466Z,99.90
2018-11-05T09:11:00.422Z,99.90
2018-11-05T09:13:27.651Z,99.90
2018-11-05T09:15:55.379Z,99.90
2018-11-05T09:18:23.025Z,99.90
2018-11-05T09:20:50.921Z,99.90
2018-11-05T09:23:18.423Z,99.90
2018-11-05T09:25:45.998Z,99.90
2018-11-05T09:28:13.764Z,99.90
2018-11-05T09:30:41.796Z,99.90
2018-11-05T09:33:09.505Z,99.90
2018-11-05T09:35:37.175Z,99.90
2018-11-05T09:38:05.446Z,99.90
2018-11-05T09:40:33.080Z,99.90
2018-11-05T09:43:00.719Z,99.90
2018-11-05T09:45:28.837Z,99.90
2018-11-05T09:47:56.755Z,99.90
2018-11-05T09:50:24.901Z,99.90
2018-11-05T09:52:52.527Z,99.90
2018-11-05T09:55:20.152Z,99.90
2018-11-05T09:57:47.681Z,99.90
2018-11-05T10:00:17.413Z,99.90
2018-11-05T10:02:50.858Z,99.90
2018-11-05T10:05:18.512Z,99.90
2018-11-05T10:07:46.207Z,99.90
2018-11-05T10:10:14.699Z,99.90
2018-11-05T10:12:42.513Z,99.90
2018-11-05T10:15:11.563Z,99.90
2018-11-05T10:17:39.639Z,99.90
2018-11-05T10:20:12.766Z,99.90
2018-11-05T10:22:47.210Z,99.90
2018-11-05T10:25:15.309Z,99.90
2018-11-05T10:27:42.796Z,99.90
2018-11-05T10:30:14.006Z,99.90
2018-11-05T10:32:42.092Z,99.90
2018-11-05T10:35:10.085Z,99.90
2018-11-05T10:37:37.886Z,99.90
2018-11-05T10:40:08.499Z,99.90
2018-11-05T10:42:36.151Z,99.90
2018-11-05T10:45:04.112Z,99.90
2018-11-05T10:47:31.702Z,99.90
2018-11-05T10:49:59.482Z,99.90
2018-11-05T10:52:27.167Z,99.90
2018-11-05T10:54:54.898Z,99.90
2018-11-05T10:57:22.603Z,99.90
2018-11-05T10:59:50.167Z,99.90
2018-11-05T11:02:23.506Z,99.90
2018-11-05T11:04:51.024Z,99.90
2018-11-05T11:07:18.699Z,99.90
2018-11-05T11:09:46.298Z,99.90
2018-11-05T11:12:13.910Z,99.90
2018-11-05T11:14:41.563Z,99.90
2018-11-05T11:17:09.257Z,99.90
2018-11-05T11:19:36.847Z,99.90
2018-11-05T11:22:04.555Z,99.90
2018-11-05T11:24:32.047Z,99.90
2018-11-05T11:26:59.631Z,99.90
2018-11-05T11:29:27.293Z,99.90
2018-11-05T11:31:54.807Z,99.90
2018-11-05T11:34:22.436Z,99.90
2018-11-05T11:36:50.167Z,99.90
2018-11-05T11:39:18.763Z,99.90
2018-11-05T11:41:46.326Z,99.90
2018-11-05T11:44:14.209Z,99.90
2018-11-05T11:46:41.617Z,99.90
2018-11-05T11:49:09.806Z,99.90
2018-11-05T11:51:37.370Z,99.90
2018-11-05T11:54:05.646Z,99.90
2018-11-05T11:56:33.256Z,99.90
2018-11-05T11:59:00.858Z,99.90
2018-11-05T12:01:28.654Z,99.90
2018-11-05T12:03:56.439Z,99.90
2018-11-05T12:06:24.244Z,99.90
2018-11-05T12:08:51.797Z,99.90
2018-11-05T12:11:19.363Z,99.90
2018-11-05T12:13:46.982Z,99.90
2018-11-05T12:16:14.530Z,99.90
2018-11-05T12:18:42.155Z,99.90
2018-11-05T12:21:09.752Z,99.90
2018-11-05T12:23:37.387Z,99.90
2018-11-05T12:26:05.465Z,99.90
2018-11-05T12:28:33.035Z,99.90
2018-11-05T12:31:00.638Z,99.90
2018-11-05T12:33:28.259Z,99.90
2018-11-05T12:35:55.884Z,99.90
2018-11-05T12:38:23.506Z,99.90
2018-11-05T12:40:51.103Z,99.90
2018-11-05T12:43:18.812Z,99.90
2018-11-05T12:45:46.455Z,99.90
2018-11-05T12:48:14.616Z,99.90
2018-11-05T12:50:42.298Z,99.90
2018-11-05T12:53:09.819Z,99.90
2018-11-05T12:55:37.472Z,99.90
2018-11-05T12:58:05.033Z,99.90
2018-11-05T13:00:32.812Z,99.90
2018-11-05T13:03:00.994Z,99.90
2018-11-05T13:05:29.805Z,99.90
2018-11-05T13:07:57.382Z,99.90
2018-11-05T13:10:25.187Z,99.90
2018-11-05T13:12:53.010Z,99.90
2018-11-05T13:15:20.689Z,99.90
2018-11-05T13:17:48.135Z,99.90
2018-11-05T13:20:19.927Z,99.90
2018-11-05T13:22:47.937Z,99.90
2018-11-05T13:25:15.429Z,99.90
2018-11-05T13:27:44.253Z,99.90
2018-11-05T13:30:12.570Z,99.90
2018-11-05T13:32:40.873Z,99.90
2018-11-05T13:35:10.363Z,99.90
2018-11-05T13:37:38.587Z,99.90
2018-11-05T13:40:07.554Z,99.90
2018-11-05T13:42:35.248Z,99.90
2018-11-05T13:45:02.994Z,99.90
2018-11-05T13:47:31.259Z,99.90
2018-11-05T13:49:58.417Z,99.90
2018-11-05T13:52:25.976Z,99.90
2018-11-05T13:54:53.993Z,99.90
2018-11-05T13:57:21.352Z,99.90
2018-11-05T13:59:48.967Z,99.90
2018-11-05T14:02:16.802Z,99.90
2018-11-05T14:04:44.606Z,99.90
2018-11-05T14:07:12.719Z,99.90
2018-11-05T14:09:40.397Z,99.90
2018-11-05T14:12:08.003Z,99.90
2018-11-05T14:14:35.552Z,99.90
2018-11-05T14:17:03.210Z,99.90
2018-11-05T14:19:31.108Z,99.90
2018-11-05T14:21:58.678Z,99.90
2018-11-05T14:24:26.192Z,99.90
2018-11-05T14:26:53.763Z,99.90
2018-11-05T14:29:21.776Z,99.90
2018-11-05T14:31:48.905Z,99.90
2018-11-05T14:34:31.534Z,99.90
2018-11-05T14:36:59.499Z,99.90
2018-11-05T14:39:26.879Z,99.90
2018-11-05T14:41:54.471Z,99.90
2018-11-05T15:30:56.525Z,46.60
2018-11-05T15:44:36.782Z,51.60
2018-11-05T15:47:04.443Z,53.60
2018-11-05T15:53:13.030Z,55.50
2018-11-05T15:55:40.688Z,60.00
2018-11-05T15:58:08.229Z,64.50
2018-11-05T16:00:35.850Z,66.80
2018-11-05T16:03:03.868Z,68.90
2018-11-05T16:05:31.531Z,70.40
2018-11-05T16:07:59.162Z,71.80
2018-11-05T16:10:26.715Z,73.00
2018-11-05T16:12:54.328Z,74.10
2018-11-05T16:15:21.866Z,74.90
2018-11-05T16:17:49.550Z,75.90
2018-11-05T16:20:19.440Z,76.80
2018-11-05T16:22:47.942Z,77.40
2018-11-05T16:25:15.459Z,78.10
2018-11-05T16:27:43.508Z,78.60
2018-11-05T16:30:12.958Z,79.20
2018-11-05T16:32:40.904Z,79.80
2018-11-05T16:35:08.690Z,80.30
2018-11-05T16:37:36.450Z,80.70
2018-11-05T16:40:05.561Z,81.20
2018-11-05T16:42:33.107Z,81.80
2018-11-05T16:45:04.708Z,82.20
2018-11-05T16:47:32.870Z,82.60
2018-11-05T16:50:00.561Z,83.00
2018-11-05T16:52:28.343Z,83.40
2018-11-05T16:54:55.870Z,83.70
2018-11-05T16:57:23.743Z,84.20
2018-11-05T16:59:51.287Z,84.50
2018-11-05T17:02:19.259Z,84.80
2018-11-05T17:04:46.957Z,85.20
2018-11-05T17:07:14.762Z,85.60
2018-11-05T17:09:42.595Z,85.80
2018-11-05T17:12:10.130Z,86.80
2018-11-05T17:14:37.971Z,86.40
2018-11-05T17:17:05.639Z,86.70
2018-11-05T17:19:33.370Z,87.00
2018-11-05T17:22:01.002Z,87.30
2018-11-05T17:24:29.110Z,87.50
2018-11-05T17:26:56.702Z,87.70
2018-11-05T17:29:24.253Z,87.90
2018-11-05T17:31:52.690Z,88.10
2018-11-05T17:34:20.827Z,88.20
2018-11-05T17:36:48.807Z,88.50
2018-11-05T17:39:16.315Z,88.70
2018-11-05T17:41:43.825Z,89.10
2018-11-05T17:44:12.436Z,89.30
2018-11-05T17:46:40.135Z,89.50
2018-11-05T17:49:10.300Z,89.70
2018-11-05T17:51:38.135Z,89.90
2018-11-05T17:54:06.022Z,90.00
2018-11-05T17:56:33.548Z,90.00
2018-11-05T17:59:01.379Z,90.10
2018-11-05T18:01:28.951Z,90.20
2018-11-05T18:03:56.528Z,90.20
2018-11-05T18:06:24.105Z,90.30
2018-11-05T18:08:51.914Z,90.40
2018-11-05T18:11:19.395Z,90.40
2018-11-05T18:13:46.995Z,90.40
2018-11-05T18:16:14.575Z,90.50
2018-11-05T18:18:42.334Z,90.50
2018-11-05T18:21:10.259Z,90.60
2018-11-05T18:23:38.378Z,90.60
2018-11-05T18:26:06.616Z,90.60
2018-11-05T18:28:34.185Z,91.40
2018-11-05T18:31:01.756Z,91.20
2018-11-05T18:33:29.354Z,91.10
2018-11-05T18:35:57.032Z,91.20
2018-11-05T18:38:24.942Z,91.20
2018-11-05T18:40:52.563Z,91.20
2018-11-05T18:43:20.079Z,91.20
2018-11-05T18:45:47.640Z,91.20
2018-11-05T18:48:15.333Z,91.20
2018-11-05T18:50:42.874Z,91.20
2018-11-05T18:53:10.480Z,91.30
2018-11-05T18:55:38.224Z,91.30
2018-11-05T18:58:06.699Z,91.30
2018-11-05T19:00:34.256Z,91.40
2018-11-05T19:03:01.868Z,91.40
2018-11-05T19:05:29.963Z,91.40
2018-11-05T19:07:57.648Z,91.40
2018-11-05T19:10:25.282Z,91.40
2018-11-05T19:12:53.389Z,91.50
2018-11-05T19:15:21.058Z,91.50
2018-11-05T19:17:49.225Z,91.50
2018-11-05T19:20:17.169Z,91.60
2018-11-05T19:22:45.353Z,91.50
2018-11-05T19:25:13.908Z,91.60
2018-11-05T19:27:42.023Z,91.60
2018-11-05T19:30:13.432Z,91.60
2018-11-05T19:32:41.069Z,91.60
2018-11-05T19:35:09.559Z,91.60
2018-11-05T19:37:37.298Z,91.70
2018-11-05T19:40:06.071Z,91.70
2018-11-05T19:42:33.810Z,91.70
2018-11-05T19:45:01.601Z,92.00
2018-11-05T19:47:29.225Z,91.80
2018-11-05T19:49:56.731Z,92.10
2018-11-05T19:52:24.385Z,91.80
2018-11-05T19:54:52.035Z,91.80
2018-11-05T19:57:19.708Z,92.10
2018-11-05T19:59:47.261Z,91.80
2018-11-05T20:02:15.018Z,91.80
2018-11-05T20:04:42.577Z,91.80
2018-11-05T20:07:10.163Z,91.90
2018-11-05T20:09:37.990Z,91.90
2018-11-05T20:12:06.100Z,91.90
2018-11-05T20:14:33.968Z,91.90
2018-11-05T20:17:01.866Z,91.90
2018-11-05T20:19:29.227Z,92.00
2018-11-05T20:21:56.942Z,92.00
2018-11-05T20:24:24.740Z,92.00
2018-11-05T20:26:52.325Z,92.00
2018-11-05T20:29:19.931Z,92.10
2018-11-05T20:31:47.623Z,92.10
2018-11-05T20:34:15.321Z,92.10
2018-11-05T20:36:42.558Z,92.10
2018-11-05T20:39:10.818Z,92.10
2018-11-05T20:41:38.559Z,92.10
2018-11-05T20:44:06.463Z,92.20
2018-11-05T20:46:34.162Z,92.20
2018-11-05T20:49:01.796Z,92.20
2018-11-05T20:51:29.668Z,92.30
2018-11-05T20:53:57.429Z,92.20
2018-11-05T20:56:25.083Z,92.30
2018-11-05T20:58:53.089Z,92.40
2018-11-05T21:01:20.682Z,92.30
2018-11-05T21:03:48.252Z,92.30
2018-11-05T21:06:16.123Z,92.40
2018-11-05T21:08:43.735Z,92.40
2018-11-05T21:11:11.264Z,92.40
2018-11-05T21:13:39.553Z,92.40
2018-11-05T21:16:07.294Z,92.40
2018-11-05T21:18:35.080Z,92.50
2018-11-05T21:21:02.756Z,92.40
2018-11-05T21:23:30.239Z,92.50
2018-11-05T21:25:57.799Z,92.50
2018-11-05T21:28:25.540Z,92.50
2018-11-05T21:30:55.966Z,92.60
2018-11-05T21:33:23.539Z,92.60
2018-11-05T21:35:51.099Z,92.60
2018-11-05T21:38:18.778Z,92.70
2018-11-05T21:40:46.689Z,92.70
2018-11-05T21:43:14.216Z,92.70
2018-11-05T21:45:41.924Z,92.70
2018-11-05T21:48:09.471Z,92.80
2018-11-05T21:50:37.288Z,92.90
2018-11-05T21:53:05.753Z,92.80
2018-11-05T21:55:33.573Z,92.80
2018-11-05T21:58:01.302Z,92.90
2018-11-05T22:00:28.955Z,92.90
2018-11-05T22:03:09.943Z,92.90
2018-11-05T22:05:37.473Z,92.90
2018-11-05T22:08:05.692Z,92.90
2018-11-05T22:10:33.643Z,92.90
2018-11-05T22:13:01.266Z,92.90
2018-11-05T22:15:34.476Z,93.00
2018-11-05T22:18:02.059Z,93.00
2018-11-05T22:20:29.619Z,93.00
2018-11-05T22:22:57.311Z,93.00
2018-11-05T22:25:27.803Z,93.00
2018-11-05T22:27:55.511Z,93.00
2018-11-05T22:30:23.046Z,93.00
2018-11-05T22:32:50.592Z,93.10
2018-11-05T22:35:18.156Z,93.10
2018-11-05T22:37:45.703Z,93.10
2018-11-05T22:40:14.022Z,93.10
2018-11-05T22:42:42.203Z,93.10
2018-11-05T22:45:11.780Z,93.20
2018-11-05T22:47:39.529Z,93.20
2018-11-05T22:50:07.709Z,93.20
2018-11-05T22:52:35.390Z,93.20
2018-11-05T22:55:03.271Z,93.20
2018-11-05T22:57:31.019Z,93.20
2018-11-05T22:59:58.574Z,93.20
2018-11-05T23:02:26.347Z,93.20
2018-11-05T23:04:53.998Z,93.30
2018-11-05T23:07:21.653Z,93.30
2018-11-05T23:09:49.168Z,93.30
2018-11-05T23:12:16.746Z,93.30
2018-11-05T23:14:44.471Z,93.40
2018-11-05T23:17:12.208Z,93.40
2018-11-05T23:19:39.771Z,93.40
2018-11-05T23:22:07.351Z,93.40
2018-11-05T23:24:35.585Z,93.40
2018-11-05T23:27:03.303Z,93.40
2018-11-05T23:29:31.308Z,93.40
2018-11-05T23:31:58.839Z,93.50
2018-11-05T23:34:26.478Z,93.50
2018-11-05T23:36:54.052Z,93.50
2018-11-05T23:39:21.659Z,93.50
2018-11-05T23:41:49.158Z,93.50
2018-11-05T23:44:16.765Z,93.50
2018-11-05T23:46:44.328Z,93.60
2018-11-05T23:49:12.026Z,93.60
2018-11-05T23:51:39.960Z,93.60
2018-11-05T23:54:07.475Z,93.60
2018-11-05T23:56:35.007Z,93.60
2018-11-05T23:59:02.582Z,93.60
